Time,TemperatureF,DewpointF,PressureIn,WindDirection,WindDirectionDegrees,WindSpeedMPH,WindSpeedGustMPH,Humidity,HourlyPrecipIn,Conditions,Clouds,dailyrainin,SoftwareType,DateUTC
2013-04-13 08:24:00,45.9,27.8,-100.00,NW,308,4.0,5.8,49,0.00,,,0.00,VWS V14.01,2013-04-13 15:24:00,
2013-04-13 08:29:00,39.0,18.4,-100.00,North,353,7.2,8.7,43,0.00,,,0.00,VWS V14.01,2013-04-13 15:29:00,
2013-04-13 08:34:00,39.0,18.4,-100.00,West,271,10.1,10.1,43,0.00,,,0.00,VWS V14.01,2013-04-13 15:34:00,
2013-04-13 08:39:00,38.7,19.2,-100.00,SW,230,8.1,8.1,45,0.00,,,0.00,VWS V14.01,2013-04-13 15:39:00,
2013-04-13 08:44:00,38.3,19.4,-100.00,WSW,256,5.8,7.6,46,0.00,,,0.00,VWS V14.01,2013-04-13 15:44:00,
2013-04-13 08:49:00,38.1,18.7,-100.00,NW,305,8.3,8.3,45,0.00,,,0.00,VWS V14.01,2013-04-13 15:49:00,
2013-04-13 08:54:00,38.1,18.7,-100.00,SE,138,7.6,7.6,45,0.00,,,0.00,VWS V14.01,2013-04-13 15:54:00,
2013-04-13 09:00:00,37.9,18.0,-100.00,SW,226,5.8,6.3,44,0.00,,,0.00,VWS V14.01,2013-04-13 16:00:00,
2013-04-13 09:04:00,37.8,17.8,-100.00,NNE,27,2.7,4.0,44,0.00,,,0.00,VWS V14.01,2013-04-13 16:04:00,
2013-04-13 09:09:00,37.8,16.8,-100.00,WNW,288,5.4,5.8,42,0.00,,,0.00,VWS V14.01,2013-04-13 16:09:00,
2013-04-13 09:14:00,37.9,16.9,-100.00,East,98,2.2,2.2,42,0.00,,,0.00,VWS V14.01,2013-04-13 16:14:00,
2013-04-13 09:20:00,37.9,16.9,-100.00,NNE,13,5.4,5.4,42,0.00,,,0.00,VWS V14.01,2013-04-13 16:20:00,
2013-04-13 09:25:00,38.1,16.5,-100.00,West,264,4.0,4.0,41,0.00,,,0.00,VWS V14.01,2013-04-13 16:25:00,
2013-04-13 09:30:00,38.7,17.0,-100.00,NNW,346,3.6,3.6,41,0.00,,,0.00,VWS V14.01,2013-04-13 16:30:00,
2013-04-13 09:35:00,38.8,17.2,-100.00,NNE,18,0.0,0.0,41,0.00,,,0.00,VWS V14.01,2013-04-13 16:35:00,
2013-04-13 09:40:00,38.8,16.6,-100.00,SSW,201,4.0,4.0,40,0.00,,,0.00,VWS V14.01,2013-04-13 16:40:00,
2013-04-13 09:45:00,39.2,16.9,-100.00,ENE,76,3.1,4.0,40,0.00,,,0.00,VWS V14.01,2013-04-13 16:45:00,
2013-04-13 09:50:00,39.4,17.1,-100.00,ENE,78,2.2,4.0,40,0.00,,,0.00,VWS V14.01,2013-04-13 16:50:00,
2013-04-13 15:04:00,49.6,17.9,-100.00,WSW,247,8.3,8.3,28,0.00,,,0.00,VWS V14.01,2013-04-13 22:04:00,
2013-04-13 15:09:00,49.3,17.6,-100.00,WNW,292,3.6,5.4,28,0.00,,,0.00,VWS V14.01,2013-04-13 22:09:00,
2013-04-13 15:14:00,49.3,18.4,-100.00,West,268,4.0,4.0,29,0.00,,,0.00,VWS V14.01,2013-04-13 22:14:00,
2013-04-13 15:19:00,49.8,18.9,-100.00,SW,234,8.1,8.3,29,0.00,,,0.00,VWS V14.01,2013-04-13 22:19:00,
2013-04-13 15:24:00,49.5,17.7,-100.00,West,279,5.8,8.1,28,0.00,,,0.00,VWS V14.01,2013-04-13 22:24:00,
2013-04-13 15:29:00,49.3,18.4,-100.00,NW,304,4.9,5.8,29,0.00,,,0.00,VWS V14.01,2013-04-13 22:29:00,
2013-04-13 15:34:00,49.1,17.4,-100.00,WNW,301,7.2,9.2,28,0.00,,,0.00,VWS V14.01,2013-04-13 22:34:00,
2013-04-13 15:39:00,48.4,17.6,-100.00,WSW,243,8.7,8.7,29,0.00,,,0.00,VWS V14.01,2013-04-13 22:39:00,
2013-04-13 15:44:00,48.4,16.8,-100.00,SSW,203,3.6,4.9,28,0.00,,,0.00,VWS V14.01,2013-04-13 22:44:00,
2013-04-13 17:26:00,45.9,16.2,-100.00,West,276,10.1,10.1,30,0.00,,,0.00,VWS V14.01,2013-04-14 00:26:00,
2013-04-13 17:31:00,45.1,15.6,-100.00,NW,308,3.6,10.5,30,0.00,,,0.00,VWS V14.01,2013-04-14 00:31:00,
2013-04-13 17:36:00,44.4,15.7,-100.00,NNW,341,3.6,4.0,31,0.00,,,0.00,VWS V14.01,2013-04-14 00:36:00,
2013-04-13 17:41:00,44.8,15.3,-100.00,West,275,5.4,5.4,30,0.00,,,0.00,VWS V14.01,2013-04-14 00:41:00,
2013-04-13 17:46:00,44.6,15.9,-100.00,West,280,3.1,4.0,31,0.00,,,0.00,VWS V14.01,2013-04-14 00:46:00,
2013-04-13 17:51:00,45.0,16.2,-100.00,NW,326,4.0,4.0,31,0.00,,,0.00,VWS V14.01,2013-04-14 00:51:00,
2013-04-13 17:56:00,45.0,16.2,-100.00,NW,316,4.9,5.4,31,0.00,,,0.00,VWS V14.01,2013-04-14 00:56:00,
2013-04-13 20:06:00,37.9,15.8,-100.00,WSW,250,0.0,8.1,40,0.00,,,0.00,VWS V14.01,2013-04-14 03:06:00,
2013-04-13 20:11:00,37.4,15.9,-100.00,South,174,3.6,5.4,41,0.00,,,0.00,VWS V14.01,2013-04-14 03:11:00,
2013-04-13 20:16:00,37.2,15.7,-100.00,West,277,0.0,3.1,41,0.00,,,0.00,VWS V14.01,2013-04-14 03:16:00,
2013-04-13 20:21:00,37.0,16.1,-100.00,SSW,211,4.0,4.0,42,0.00,,,0.00,VWS V14.01,2013-04-14 03:21:00,
2013-04-13 20:26:00,36.9,15.9,-100.00,WSW,249,3.1,3.1,42,0.00,,,0.00,VWS V14.01,2013-04-14 03:26:00,
2013-04-13 20:32:00,36.9,15.9,-100.00,South,185,2.7,3.1,42,0.00,,,0.00,VWS V14.01,2013-04-14 03:32:00,
2013-04-13 20:37:00,36.9,16.5,-100.00,SSE,164,4.0,5.8,43,0.00,,,0.00,VWS V14.01,2013-04-14 03:37:00,
2013-04-13 20:42:00,36.7,16.8,-100.00,NW,312,3.6,5.8,44,0.00,,,0.00,VWS V14.01,2013-04-14 03:42:00,
2013-04-13 20:47:00,36.7,17.4,-100.00,WNW,296,4.9,7.2,45,0.00,,,0.00,VWS V14.01,2013-04-14 03:47:00,
2013-04-13 20:52:00,36.7,17.4,-100.00,West,262,3.6,5.4,45,0.00,,,0.00,VWS V14.01,2013-04-14 03:52:00,
2013-04-13 20:57:00,36.7,17.9,-100.00,WSW,242,3.1,5.4,46,0.00,,,0.00,VWS V14.01,2013-04-14 03:57:00,
2013-04-13 21:00:00,36.7,17.9,-100.00,SSW,210,2.7,5.4,46,0.00,,,0.00,VWS V14.01,2013-04-14 04:00:00,
2013-04-13 21:05:00,36.5,17.7,-100.00,SW,216,5.4,6.7,46,0.00,,,0.00,VWS V14.01,2013-04-14 04:05:00,
2013-04-13 21:10:00,36.3,18.0,-100.00,WSW,257,3.6,3.6,47,0.00,,,0.00,VWS V14.01,2013-04-14 04:10:00,
2013-04-13 21:15:00,36.1,17.4,-100.00,SW,218,0.0,0.0,46,0.00,,,0.00,VWS V14.01,2013-04-14 04:15:00,
2013-04-13 21:20:00,36.1,17.9,-100.00,West,268,0.0,0.0,47,0.00,,,0.00,VWS V14.01,2013-04-14 04:20:00,
2013-04-13 21:25:00,35.8,17.5,-100.00,WSW,245,0.0,0.0,47,0.00,,,0.00,VWS V14.01,2013-04-14 04:25:00,
2013-04-13 21:30:00,35.4,18.2,-100.00,NW,316,0.0,0.0,49,0.00,,,0.00,VWS V14.01,2013-04-14 04:30:00,
2013-04-13 21:35:00,35.2,17.5,-100.00,West,260,5.8,5.8,48,0.00,,,0.00,VWS V14.01,2013-04-14 04:35:00,
2013-04-13 21:40:00,35.2,17.0,-100.00,West,275,0.0,0.0,47,0.00,,,0.00,VWS V14.01,2013-04-14 04:40:00,
2013-04-13 21:45:00,35.2,17.0,-100.00,North,0,0.0,0.0,47,0.00,,,0.00,VWS V14.01,2013-04-14 04:45:00,
2013-04-13 21:50:00,35.1,16.9,-100.00,West,262,0.0,0.0,47,0.00,,,0.00,VWS V14.01,2013-04-14 04:50:00,
2013-04-13 21:55:00,34.9,17.2,-100.00,West,261,0.0,0.0,48,0.00,,,0.00,VWS V14.01,2013-04-14 04:55:00,
2013-04-13 22:00:00,34.9,17.2,-100.00,West,261,0.0,0.0,48,0.00,,,0.00,VWS V14.01,2013-04-14 05:00:00,
2013-04-13 22:05:00,34.3,17.2,-100.00,West,261,0.0,0.0,49,0.00,,,0.00,VWS V14.01,2013-04-14 05:05:00,
2013-04-13 22:10:00,34.2,17.5,-100.00,SW,224,0.0,0.0,50,0.00,,,0.00,VWS V14.01,2013-04-14 05:10:00,
2013-04-13 22:15:00,34.0,17.3,-100.00,SW,222,0.0,0.0,50,0.00,,,0.00,VWS V14.01,2013-04-14 05:15:00,
2013-04-13 22:20:00,33.8,17.1,-100.00,SW,230,0.0,0.0,50,0.00,,,0.00,VWS V14.01,2013-04-14 05:20:00,
2013-04-13 22:25:00,34.0,17.3,-100.00,WSW,252,2.7,3.6,50,0.00,,,0.00,VWS V14.01,2013-04-14 05:25:00,
2013-04-13 22:30:00,34.2,17.5,-100.00,WSW,237,0.0,0.0,50,0.00,,,0.00,VWS V14.01,2013-04-14 05:30:00,
2013-04-13 22:35:00,34.2,17.0,-100.00,West,274,0.0,0.0,49,0.00,,,0.00,VWS V14.01,2013-04-14 05:35:00,
2013-04-13 22:40:00,34.0,16.8,-100.00,WSW,242,0.0,0.0,49,0.00,,,0.00,VWS V14.01,2013-04-14 05:40:00,
2013-04-13 22:45:00,34.0,16.8,-100.00,SW,230,0.0,4.9,49,0.00,,,0.00,VWS V14.01,2013-04-14 05:45:00,
2013-04-13 22:50:00,33.8,16.7,-100.00,SW,223,0.0,0.0,49,0.00,,,0.00,VWS V14.01,2013-04-14 05:50:00,
2013-04-13 22:55:00,33.8,16.7,-100.00,WSW,239,0.0,0.0,49,0.00,,,0.00,VWS V14.01,2013-04-14 05:55:00,
2013-04-13 23:00:00,33.6,17.0,-100.00,SSW,200,0.0,0.0,50,0.00,,,0.00,VWS V14.01,2013-04-14 06:00:00,
2013-04-13 23:05:00,33.6,17.0,-100.00,SSW,200,0.0,0.0,50,0.00,,,0.00,VWS V14.01,2013-04-14 06:05:00,
2013-04-13 23:10:00,33.3,16.6,-100.00,South,189,0.0,0.0,50,0.00,,,0.00,VWS V14.01,2013-04-14 06:10:00,
2013-04-13 23:15:00,33.1,16.9,-100.00,SW,220,0.0,0.0,51,0.00,,,0.00,VWS V14.01,2013-04-14 06:15:00,
2013-04-13 23:20:00,32.9,17.2,-100.00,ESE,115,0.0,0.0,52,0.00,,,0.00,VWS V14.01,2013-04-14 06:20:00,
2013-04-13 23:25:00,32.7,16.6,-100.00,South,180,0.0,0.0,51,0.00,,,0.00,VWS V14.01,2013-04-14 06:25:00,
2013-04-13 23:30:00,32.7,17.0,-100.00,South,189,2.7,2.7,52,0.00,,,0.00,VWS V14.01,2013-04-14 06:30:00,
2013-04-13 23:35:00,32.9,17.2,-100.00,WSW,252,2.7,3.6,52,0.00,,,0.00,VWS V14.01,2013-04-14 06:35:00,
2013-04-13 23:40:00,33.3,17.5,-100.00,WNW,290,3.6,4.9,52,0.00,,,0.00,VWS V14.01,2013-04-14 06:40:00,